Pagina principale
METAR-TAF:

METAR-TAF

Aeroporti :

Base aerea di Sigonella

Sigonella, Italia

latitudine: 37-24N, longitudine: 014-55E, altezza: 22 m

Osservazione

Il bollettino è stato emesso 34 minuti fa, alle 12:55 UTC
Vento 14 kt da sud-ovest
Temperature 23°C
Umidità 47%
Pressione 1009 hPa
Visibilità 10 km o più
Poco nuvoloso ad un'altezza di 3500 ft
Nubi sparse ad un'altezza di 6000 ft

METAR: LICZ 271255Z 23014KT 9999 FEW035 SCT060 23/11 Q1009 RMK BKN VIS MIN 9999 WIND THR28 23012KT WIND THR10 23012KT A2981 BLU

Ora: 15:29 (13:29 UTC)

Previsione

Il bollettino è stato emesso 2 ore e 29 minuti fa, alle 11:00 UTC
Previsione valida dal 27 alle 12 UTC al 27 alle 21 UTC
Vento 13 kt da ovest/sud-ovest
Visibilità 10 km o più
Nubi sparse ad un'altezza di 2500 ft
Nubi sparse ad un'altezza di 6000 ft

TAF: LICZ 271100Z 2712/2721 24013KT 9999 SCT025 SCT060

Osservazioni e previsioni meteorologiche di più di 4000 aeroporti (messaggi METAR e TAF).

Le stazioni disponibili sono rappresentate dai dischi gialli e rossi sulla carta.

Puntare il mouse per vedere il nome della stazione.

Clicca sopra per visualizzare le osservazioni e previsioni meteorologiche.

Per cambiare la mappa : fare clic sui pulsanti verdi con una croce nera per ingrandire, il pulsante verde con un trattino per diminuire, o sulla freccia verde per le mappe adiacenti.


METAR-TAF: